Airport ID:KN38
Update Time (UTC):30/10/2020 23:13
Wind Speed (Knots):5
Wind Direction (Magnetic):20
Temperature (°C):1
Dew Point (°C):-1
Humidity (%):89
Altimeter (inHg):30.14
Density Altitude (Feet):
Visibility:10+
Clouds (Hundreds of feet):OVC013
Present Weather:
METAR:METAR KN38 302310Z AUTO 36006KT 10SM OVC013 01/M01 A3014 RMK AO2

The data displayed is for advisory purposes only and is not to be used for flight planning or operations.